Time;durP1;ratioP1;P1;durP2;ratioP2;P2;SDS_P1;SDS_P2;PMS_P1;PMS_P2;Temp;Humidity;BMP_temperature;BMP_pressure;BME280_temperature;BME280_humidity;BME280_pressure;Samples;Min_cycle;Max_cycle;Signal;HPM_P1;HPM_P2
2021/01/07 00:03:22;;;;;;;105.00;44.55;;;;;;;;;;8160233;28;20494;-71
2021/01/07 00:07:25;;;;;;;137.88;52.78;;;;;;;;;;8193984;28;20381;-71
2021/01/07 00:11:28;;;;;;;125.63;49.20;;;;;;;;;;8192642;28;20411;-72
2021/01/07 00:15:31;;;;;;;122.65;47.65;;;;;;;;;;8193742;28;20477;-71
2021/01/07 00:19:36;;;;;;;119.30;45.45;;;;;;;;;;8176237;28;20362;-73
2021/01/07 00:23:40;;;;;;;110.07;45.22;;;;;;;;;;8193299;28;20072;-71
2021/01/07 00:27:43;;;;;;;103.60;42.67;;;;;;;;;;8192688;28;20403;-72
2021/01/07 00:31:47;;;;;;;86.65;36.75;;;;;;;;;;8193024;28;20365;-72
2021/01/07 00:35:50;;;;;;;93.50;38.65;;;;;;;;;;8175715;28;20472;-72
2021/01/07 00:39:53;;;;;;;94.90;37.05;;;;;;;;;;8192441;28;20483;-72
2021/01/07 00:43:56;;;;;;;109.70;41.60;;;;;;;;;;8174873;28;20049;-72
2021/01/07 00:48:00;;;;;;;102.47;41.33;;;;;;;;;;8192164;28;20482;-72
2021/01/07 00:52:05;;;;;;;104.65;40.50;;;;;;;;;;8174745;28;20480;-72
2021/01/07 00:56:08;;;;;;;88.78;39.38;;;;;;;;;;8192546;28;20460;-72
2021/01/07 01:00:19;;;;;;;100.93;40.58;;;;;;;;;;8173670;28;20499;-72
2021/01/07 01:04:22;;;;;;;94.30;37.47;;;;;;;;;;8191631;28;20380;-72
2021/01/07 01:08:25;;;;;;;91.95;37.58;;;;;;;;;;8191186;28;20472;-72
2021/01/07 01:12:28;;;;;;;95.38;42.03;;;;;;;;;;8191363;28;20357;-72
2021/01/07 01:16:32;;;;;;;97.75;40.88;;;;;;;;;;8191042;28;20080;-73
2021/01/07 01:20:35;;;;;;;100.80;38.33;;;;;;;;;;8158837;28;20480;-72
2021/01/07 01:24:38;;;;;;;92.43;37.60;;;;;;;;;;8198305;28;20475;-72
2021/01/07 01:28:40;;;;;;;78.45;34.42;;;;;;;;;;8202551;28;20498;-72
2021/01/07 01:32:44;;;;;;;99.85;42.60;;;;;;;;;;8202407;28;20349;-72
2021/01/07 01:36:48;;;;;;;81.90;33.42;;;;;;;;;;8169109;28;20054;-73
2021/01/07 01:40:51;;;;;;;91.72;33.75;;;;;;;;;;8167944;28;20404;-73
2021/01/07 01:44:55;;;;;;;87.03;37.22;;;;;;;;;;8202128;28;20412;-72
2021/01/07 01:49:00;;;;;;;82.57;33.97;;;;;;;;;;8202351;28;20376;-72
2021/01/07 01:53:03;;;;;;;89.13;36.05;;;;;;;;;;8201560;28;20379;-72
2021/01/07 01:57:08;;;;;;;78.38;34.85;;;;;;;;;;8201701;28;20553;-72
2021/01/07 02:01:11;;;;;;;74.78;33.55;;;;;;;;;;8186506;28;20461;-72
2021/01/07 02:05:14;;;;;;;71.88;33.65;;;;;;;;;;8184177;28;20388;-72
2021/01/07 02:09:17;;;;;;;91.25;35.17;;;;;;;;;;8202132;28;20408;-72
2021/01/07 02:13:20;;;;;;;91.20;35.88;;;;;;;;;;8183838;28;20468;-72
2021/01/07 02:17:23;;;;;;;87.45;34.15;;;;;;;;;;8183911;28;20053;-72
2021/01/07 02:21:26;;;;;;;78.45;31.35;;;;;;;;;;8202371;28;20483;-73
2021/01/07 02:25:29;;;;;;;76.28;31.75;;;;;;;;;;8184131;28;20384;-72
2021/01/07 02:29:34;;;;;;;87.03;32.70;;;;;;;;;;8184352;28;20067;-72
2021/01/07 02:33:36;;;;;;;74.13;32.05;;;;;;;;;;8201744;28;20400;-73
2021/01/07 02:37:41;;;;;;;70.85;31.38;;;;;;;;;;8195855;28;20388;-72
2021/01/07 02:41:56;;;;;;;75.35;33.20;;;;;;;;;;8178730;28;20384;-72
2021/01/07 02:45:59;;;;;;;75.70;31.75;;;;;;;;;;8179025;28;20152;-72
2021/01/07 02:50:04;;;;;;;80.40;34.97;;;;;;;;;;8178671;28;20495;-73
2021/01/07 02:54:08;;;;;;;69.32;28.35;;;;;;;;;;8194911;28;20488;-72
2021/01/07 02:58:10;;;;;;;65.15;27.70;;;;;;;;;;8195470;28;20361;-72
2021/01/07 03:02:13;;;;;;;73.78;30.85;;;;;;;;;;8178007;28;20373;-72
2021/01/07 03:06:17;;;;;;;57.97;28.35;;;;;;;;;;8177917;28;20473;-73
2021/01/07 03:10:20;;;;;;;67.18;30.83;;;;;;;;;;8162258;28;20375;-72
2021/01/07 03:14:23;;;;;;;75.72;30.30;;;;;;;;;;8195115;28;20062;-72
2021/01/07 03:18:26;;;;;;;68.38;27.67;;;;;;;;;;8195603;28;20479;-72
2021/01/07 03:22:29;;;;;;;72.90;29.60;;;;;;;;;;8162104;28;20361;-72
2021/01/07 03:26:32;;;;;;;63.78;28.88;;;;;;;;;;8160816;28;20053;-74
2021/01/07 03:30:35;;;;;;;69.60;26.23;;;;;;;;;;8177132;28;20473;-72
2021/01/07 03:34:38;;;;;;;64.15;27.17;;;;;;;;;;8194327;28;20053;-72
2021/01/07 03:38:41;;;;;;;65.25;28.10;;;;;;;;;;8194393;28;20486;-72
2021/01/07 03:42:44;;;;;;;58.55;24.98;;;;;;;;;;8194636;28;20076;-72
2021/01/07 03:46:48;;;;;;;65.55;27.60;;;;;;;;;;8194475;28;20420;-72
2021/01/07 03:50:51;;;;;;;62.30;27.30;;;;;;;;;;8177318;28;20495;-72
2021/01/07 03:54:54;;;;;;;69.13;27.85;;;;;;;;;;8194384;28;20365;-73
2021/01/07 03:58:57;;;;;;;62.72;27.65;;;;;;;;;;8194293;28;20376;-72
2021/01/07 04:03:00;;;;;;;66.53;25.63;;;;;;;;;;8176162;28;20416;-73
2021/01/07 04:07:03;;;;;;;75.30;30.60;;;;;;;;;;8193371;28;20472;-72
2021/01/07 04:11:06;;;;;;;57.97;26.55;;;;;;;;;;8176155;28;20368;-73
2021/01/07 04:15:09;;;;;;;139.73;37.80;;;;;;;;;;8193540;28;20388;-72
2021/01/07 04:19:12;;;;;;;62.88;30.33;;;;;;;;;;8193094;28;20408;-73
2021/01/07 04:23:15;;;;;;;255.20;68.20;;;;;;;;;;8175605;28;20054;-72
2021/01/07 04:27:18;;;;;;;134.25;47.58;;;;;;;;;;8193088;28;20490;-73
2021/01/07 04:31:22;;;;;;;72.47;29.70;;;;;;;;;;8176112;28;20503;-73
2021/01/07 04:35:25;;;;;;;57.13;27.88;;;;;;;;;;8174798;28;20480;-72
2021/01/07 04:39:28;;;;;;;56.15;25.00;;;;;;;;;;8192738;28;20468;-72
2021/01/07 04:43:32;;;;;;;74.35;28.90;;;;;;;;;;8175298;28;20468;-73
2021/01/07 04:47:36;;;;;;;55.13;24.95;;;;;;;;;;8174965;28;20042;-72
2021/01/07 04:51:40;;;;;;;107.85;34.35;;;;;;;;;;8192657;28;20487;-72
2021/01/07 04:55:42;;;;;;;67.97;26.38;;;;;;;;;;8174904;28;20380;-72
2021/01/07 04:59:45;;;;;;;285.17;60.63;;;;;;;;;;8174198;28;20049;-72
2021/01/07 05:03:52;;;;;;;174.75;41.72;;;;;;;;;;8191353;28;20506;-72
2021/01/07 05:07:55;;;;;;;310.95;64.95;;;;;;;;;;8174554;28;20369;-72
2021/01/07 05:12:02;;;;;;;258.88;59.92;;;;;;;;;;8191543;28;20511;-72
2021/01/07 05:16:21;;;;;;;439.02;90.13;;;;;;;;;;8191624;28;20495;-72
2021/01/07 05:20:24;;;;;;;407.45;82.72;;;;;;;;;;8191083;28;20372;-72
2021/01/07 05:24:27;;;;;;;410.65;83.43;;;;;;;;;;8192074;28;20461;-73
2021/01/07 05:28:30;;;;;;;394.58;76.72;;;;;;;;;;8174335;28;20514;-72
2021/01/07 05:32:42;;;;;;;147.43;41.10;;;;;;;;;;8173794;28;20484;-72
2021/01/07 05:36:45;;;;;;;522.28;98.10;;;;;;;;;;8191494;28;20076;-72
2021/01/07 05:40:51;;;;;;;257.40;52.85;;;;;;;;;;8174345;28;20045;-72
2021/01/07 05:44:55;;;;;;;412.50;78.35;;;;;;;;;;8191217;28;20498;-72
2021/01/07 05:48:59;;;;;;;278.50;52.95;;;;;;;;;;8191376;28;20484;-72
2021/01/07 05:53:03;;;;;;;449.65;81.05;;;;;;;;;;8191175;28;20472;-73
2021/01/07 05:57:11;;;;;;;261.40;53.17;;;;;;;;;;8190285;28;20461;-72
2021/01/07 06:01:23;;;;;;;198.68;41.45;;;;;;;;;;8143613;28;20365;-72
2021/01/07 06:05:27;;;;;;;376.13;66.10;;;;;;;;;;8174460;28;20460;-72
2021/01/07 06:09:31;;;;;;;196.02;43.25;;;;;;;;;;8191530;28;20488;-72
2021/01/07 06:13:34;;;;;;;76.82;32.08;;;;;;;;;;8179929;28;20388;-72
2021/01/07 06:17:38;;;;;;;57.92;23.13;;;;;;;;;;8148262;28;20468;-73
2021/01/07 06:21:48;;;;;;;84.00;29.98;;;;;;;;;;8179779;28;20491;-72
2021/01/07 06:26:19;;;;;;;68.95;28.08;;;;;;;;;;8178354;28;20068;-73
2021/01/07 06:30:22;;;;;;;55.03;23.48;;;;;;;;;;8192883;28;20376;-72
2021/01/07 06:34:26;;;;;;;50.97;21.38;;;;;;;;;;8197349;28;20407;-72
2021/01/07 06:38:30;;;;;;;156.85;34.85;;;;;;;;;;8162086;28;20387;-72
2021/01/07 06:42:37;;;;;;;84.68;26.48;;;;;;;;;;8197929;28;20357;-73
2021/01/07 06:46:47;;;;;;;66.88;24.10;;;;;;;;;;8178578;28;20387;-72
2021/01/07 06:50:55;;;;;;;72.20;25.45;;;;;;;;;;8127742;28;20445;-72
2021/01/07 06:54:58;;;;;;;64.80;25.03;;;;;;;;;;8109291;28;20372;-72
2021/01/07 06:59:02;;;;;;;56.72;21.35;;;;;;;;;;8178131;28;20383;-72
2021/01/07 07:03:11;;;;;;;50.05;20.48;;;;;;;;;;8195011;28;20372;-72
2021/01/07 07:07:39;;;;;;;38.60;16.25;;;;;;;;;;8160278;28;20376;-72
2021/01/07 07:11:55;;;;;;;41.38;16.42;;;;;;;;;;8160773;28;20072;-73
2021/01/07 07:16:03;;;;;;;42.85;15.63;;;;;;;;;;8052558;28;20045;-73
2021/01/07 07:20:08;;;;;;;31.33;12.10;;;;;;;;;;8193658;28;20477;-72
2021/01/07 07:24:11;;;;;;;27.45;11.52;;;;;;;;;;8194264;28;20510;-72
2021/01/07 07:28:15;;;;;;;19.48;9.65;;;;;;;;;;8194927;28;20486;-73
2021/01/07 07:32:21;;;;;;;18.88;8.20;;;;;;;;;;8179598;28;20476;-72
2021/01/07 07:36:30;;;;;;;29.10;12.82;;;;;;;;;;8141911;28;20053;-72
2021/01/07 07:40:43;;;;;;;;;;;;;;;;;;8194990;28;20415;-72
2021/01/07 07:44:48;;;;;;;14.13;7.05;;;;;;;;;;8194244;28;20295;-72
2021/01/07 07:49:01;;;;;;;33.80;11.07;;;;;;;;;;8144524;28;20117;-73
2021/01/07 07:53:09;;;;;;;18.10;7.43;;;;;;;;;;8097469;28;20396;-73
2021/01/07 07:57:12;;;;;;;21.05;7.43;;;;;;;;;;8193755;28;20415;-73
2021/01/07 08:01:15;;;;;;;20.15;7.10;;;;;;;;;;8101617;28;20379;-73
2021/01/07 08:05:26;;;;;;;14.75;6.30;;;;;;;;;;8192743;28;20065;-72
2021/01/07 08:09:29;;;;;;;20.88;8.10;;;;;;;;;;8193586;28;20384;-73
2021/01/07 08:13:33;;;;;;;17.58;7.65;;;;;;;;;;8175810;28;20411;-72
2021/01/07 08:17:36;;;;;;;18.30;8.23;;;;;;;;;;8193064;28;20054;-72
2021/01/07 08:21:45;;;;;;;24.42;8.60;;;;;;;;;;8192102;28;20461;-72
2021/01/07 08:25:53;;;;;;;42.08;10.98;;;;;;;;;;8193245;28;20046;-73
2021/01/07 08:30:01;;;;;;;30.10;10.25;;;;;;;;;;8176151;28;20054;-72
2021/01/07 08:34:04;;;;;;;13.57;6.43;;;;;;;;;;8175551;28;20376;-72
2021/01/07 08:38:07;;;;;;;19.88;8.70;;;;;;;;;;8106421;28;20412;-72
2021/01/07 08:42:13;;;;;;;22.92;8.48;;;;;;;;;;8175332;28;20046;-72
2021/01/07 08:46:25;;;;;;;17.20;8.90;;;;;;;;;;8176046;28;20131;-72
2021/01/07 08:50:32;;;;;;;17.25;7.70;;;;;;;;;;8175171;28;20391;-73
2021/01/07 08:54:35;;;;;;;59.33;17.27;;;;;;;;;;8172599;28;20374;-74
2021/01/07 08:58:38;;;;;;;31.95;11.32;;;;;;;;;;8169663;28;20389;-72
2021/01/07 09:02:41;;;;;;;41.75;12.98;;;;;;;;;;8127277;28;20380;-73
2021/01/07 09:06:56;;;;;;;16.15;9.70;;;;;;;;;;8143027;28;20484;-73
2021/01/07 09:11:08;;;;;;;39.28;13.25;;;;;;;;;;8160294;28;20372;-73
2021/01/07 09:15:23;;;;;;;13.98;7.43;;;;;;;;;;8141830;28;20373;-72
2021/01/07 09:19:26;;;;;;;44.22;14.13;;;;;;;;;;8159543;28;20050;-73
2021/01/07 09:23:28;;;;;;;79.72;19.75;;;;;;;;;;8093117;28;20069;-73
2021/01/07 09:27:32;;;;;;;28.98;21.23;;;;;;;;;;8159340;28;20404;-73
2021/01/07 09:31:35;;;;;;;23.77;11.68;;;;;;;;;;8160473;28;20477;-73
2021/01/07 09:35:38;;;;;;;26.10;15.80;;;;;;;;;;8142122;28;20481;-73
2021/01/07 09:39:42;;;;;;;94.65;27.23;;;;;;;;;;8158173;28;20484;-73
2021/01/07 09:43:50;;;;;;;37.53;17.00;;;;;;;;;;8144122;28;20484;-73
2021/01/07 09:47:53;;;;;;;33.10;14.40;;;;;;;;;;8165701;28;20431;-73
2021/01/07 09:51:57;;;;;;;17.58;9.93;;;;;;;;;;8149629;28;20401;-72
2021/01/07 09:56:00;;;;;;;46.53;15.48;;;;;;;;;;8179669;28;20365;-72
2021/01/07 10:00:07;;;;;;;15.18;9.13;;;;;;;;;;8178053;28;20445;-74
2021/01/07 10:04:11;;;;;;;14.75;8.27;;;;;;;;;;8192116;28;20497;-72
2021/01/07 10:08:13;;;;;;;17.25;9.23;;;;;;;;;;8164988;28;20473;-72
2021/01/07 10:12:16;;;;;;;20.15;10.05;;;;;;;;;;8165048;28;20488;-72
2021/01/07 10:16:19;;;;;;;22.90;14.00;;;;;;;;;;8165275;28;20477;-72
2021/01/07 10:20:23;;;;;;;15.73;9.25;;;;;;;;;;8165033;28;20484;-72
2021/01/07 10:24:26;;;;;;;19.02;9.50;;;;;;;;;;8157550;28;20497;-72
2021/01/07 10:28:32;;;;;;;24.33;13.75;;;;;;;;;;8147237;28;20385;-72
2021/01/07 10:32:36;;;;;;;17.75;9.48;;;;;;;;;;8194637;28;20404;-72
2021/01/07 10:36:41;;;;;;;57.05;15.45;;;;;;;;;;8196763;28;20484;-72
2021/01/07 10:40:45;;;;;;;40.90;12.50;;;;;;;;;;8193829;28;20488;-73
2021/01/07 10:44:49;;;;;;;44.03;14.27;;;;;;;;;;8166586;28;20369;-73
2021/01/07 10:48:54;;;;;;;22.10;8.75;;;;;;;;;;8179341;28;20661;-72
2021/01/07 10:53:14;;;;;;;38.03;11.00;;;;;;;;;;8178452;28;20494;-73
2021/01/07 10:58:05;;;;;;;12.25;6.78;;;;;;;;;;8179086;28;20384;-73
2021/01/07 11:02:30;;;;;;;12.15;6.50;;;;;;;;;;8195282;28;20490;-71
2021/01/07 11:06:37;;;;;;;16.70;8.15;;;;;;;;;;8176025;28;20460;-73
2021/01/07 11:10:42;;;;;;;22.77;10.55;;;;;;;;;;8195185;28;20407;-72
2021/01/07 11:15:01;;;;;;;27.52;11.02;;;;;;;;;;8177620;28;20472;-72
2021/01/07 11:19:08;;;;;;;63.63;16.27;;;;;;;;;;8178286;28;20411;-72
2021/01/07 11:23:22;;;;;;;20.73;8.50;;;;;;;;;;8177595;28;20490;-72
2021/01/07 11:27:27;;;;;;;19.92;8.30;;;;;;;;;;8177838;28;20068;-72
2021/01/07 11:31:30;;;;;;;19.17;8.65;;;;;;;;;;8191359;28;20388;-72
2021/01/07 11:35:34;;;;;;;41.75;13.05;;;;;;;;;;8178035;28;20380;-72
2021/01/07 11:39:58;;;;;;;15.75;6.60;;;;;;;;;;8194970;28;20050;-73
2021/01/07 11:44:37;;;;;;;24.30;9.32;;;;;;;;;;8194477;28;20354;-72
2021/01/07 11:48:45;;;;;;;26.23;11.15;;;;;;;;;;8162313;28;20476;-72
2021/01/07 11:52:48;;;;;;;18.42;8.07;;;;;;;;;;8171814;28;20449;-73
2021/01/07 11:56:52;;;;;;;16.83;9.13;;;;;;;;;;8176091;28;20385;-72
2021/01/07 12:00:56;;;;;;;22.27;10.73;;;;;;;;;;8140357;28;20365;-72
2021/01/07 12:05:00;;;;;;;23.90;12.80;;;;;;;;;;8175301;28;20073;-72
2021/01/07 12:09:09;;;;;;;71.03;33.40;;;;;;;;;;8194183;28;20380;-72
2021/01/07 12:14:04;;;;;;;47.97;24.48;;;;;;;;;;8169459;28;20365;-72
2021/01/07 12:18:07;;;;;;;27.45;15.07;;;;;;;;;;8150935;28;20489;-73
2021/01/07 12:22:14;;;;;;;47.17;23.55;;;;;;;;;;8161817;28;20404;-72
2021/01/07 12:26:35;;;;;;;47.42;23.48;;;;;;;;;;8143862;28;20413;-72
2021/01/07 12:30:38;;;;;;;28.45;12.65;;;;;;;;;;8096087;28;20389;-72
2021/01/07 12:35:19;;;;;;;21.15;9.55;;;;;;;;;;8168267;28;20400;-73
2021/01/07 12:39:44;;;;;;;21.40;9.95;;;;;;;;;;8110155;28;20408;-72
2021/01/07 12:43:56;;;;;;;24.55;11.27;;;;;;;;;;8172817;28;20380;-72
2021/01/07 12:48:00;;;;;;;29.30;13.73;;;;;;;;;;8189896;28;20357;-73
2021/01/07 12:52:04;;;;;;;29.25;13.77;;;;;;;;;;8090421;28;20045;-72
2021/01/07 12:56:11;;;;;;;29.15;13.38;;;;;;;;;;8187022;28;20472;-72
2021/01/07 13:00:27;;;;;;;31.73;16.08;;;;;;;;;;8107930;28;20499;-72
2021/01/07 13:05:03;;;;;;;29.15;14.27;;;;;;;;;;8159954;28;20046;-72
2021/01/07 13:09:08;;;;;;;41.30;19.38;;;;;;;;;;8131390;28;20373;-73
2021/01/07 13:13:14;;;;;;;64.20;23.52;;;;;;;;;;8101232;28;20457;-72
2021/01/07 13:17:18;;;;;;;62.70;24.98;;;;;;;;;;8128010;28;20476;-72
2021/01/07 13:21:22;;;;;;;27.35;15.82;;;;;;;;;;8159642;28;20080;-73
2021/01/07 13:25:28;;;;;;;24.30;13.15;;;;;;;;;;8060796;28;20358;-72
2021/01/07 13:29:32;;;;;;;26.55;14.52;;;;;;;;;;8159250;28;20385;-73
2021/01/07 13:33:36;;;;;;;30.55;16.17;;;;;;;;;;7974785;28;20480;-72
2021/01/07 13:37:41;;;;;;;30.13;16.05;;;;;;;;;;8129712;28;20413;-72
2021/01/07 13:41:46;;;;;;;34.42;15.45;;;;;;;;;;8142463;28;20461;-72
2021/01/07 13:45:52;;;;;;;30.92;15.18;;;;;;;;;;8142505;28;20046;-73
2021/01/07 13:50:12;;;;;;;32.53;16.33;;;;;;;;;;8126774;28;20046;-72
2021/01/07 13:54:16;;;;;;;28.60;16.90;;;;;;;;;;8159765;28;20465;-73
2021/01/07 13:58:20;;;;;;;59.47;26.85;;;;;;;;;;8159202;28;20062;-72
2021/01/07 14:02:27;;;;;;;32.90;18.42;;;;;;;;;;8027322;28;20381;-72
2021/01/07 14:06:32;;;;;;;52.45;26.08;;;;;;;;;;7994308;28;20380;-73
2021/01/07 14:10:39;;;;;;;35.08;17.10;;;;;;;;;;8152554;28;20381;-73
2021/01/07 14:14:43;;;;;;;28.25;14.60;;;;;;;;;;8157806;28;20499;-73
2021/01/07 14:18:46;;;;;;;38.08;16.27;;;;;;;;;;8141383;28;20465;-72
2021/01/07 14:22:52;;;;;;;33.45;15.23;;;;;;;;;;8156309;28;20046;-73
2021/01/07 14:27:08;;;;;;;49.97;18.83;;;;;;;;;;8191207;28;20472;-73
2021/01/07 14:31:11;;;;;;;30.10;14.20;;;;;;;;;;8191554;28;20452;-73
2021/01/07 14:35:19;;;;;;;39.45;18.17;;;;;;;;;;8163627;28;20491;-73
2021/01/07 14:39:22;;;;;;;48.35;21.45;;;;;;;;;;8179223;28;20485;-74
2021/01/07 14:43:25;;;;;;;45.00;19.27;;;;;;;;;;8163521;28;20675;-73
2021/01/07 14:47:30;;;;;;;36.22;18.02;;;;;;;;;;8162961;28;20460;-73
2021/01/07 14:51:33;;;;;;;37.28;19.20;;;;;;;;;;8179064;28;20500;-73
2021/01/07 14:55:37;;;;;;;74.25;33.13;;;;;;;;;;8179014;28;20421;-74
2021/01/07 14:59:55;;;;;;;57.70;27.10;;;;;;;;;;8195777;28;20472;-73
2021/01/07 15:04:18;;;;;;;54.90;29.33;;;;;;;;;;8178963;28;20093;-74
2021/01/07 15:08:32;;;;;;;50.67;24.30;;;;;;;;;;8196021;28;20407;-75
2021/01/07 15:12:40;;;;;;;98.40;40.33;;;;;;;;;;8179083;28;20492;-73
2021/01/07 15:17:05;;;;;;;74.32;34.22;;;;;;;;;;8195671;28;20559;-73
2021/01/07 15:21:10;;;;;;;74.60;34.20;;;;;;;;;;8179841;28;20415;-72
2021/01/07 15:25:23;;;;;;;361.00;109.38;;;;;;;;;;8194843;28;20415;-72
2021/01/07 15:29:49;;;;;;;147.05;52.55;;;;;;;;;;8162412;28;20057;-73
2021/01/07 15:34:32;;;;;;;117.43;48.50;;;;;;;;;;8180232;28;20503;-73
2021/01/07 15:39:10;;;;;;;141.82;54.63;;;;;;;;;;8177905;28;20477;-73
2021/01/07 15:44:01;;;;;;;163.00;68.88;;;;;;;;;;8194010;28;20058;-73
2021/01/07 15:48:13;;;;;;;92.47;39.47;;;;;;;;;;8194532;28;20460;-73
2021/01/07 15:52:56;;;;;;;164.85;65.78;;;;;;;;;;8193458;28;20472;-73
2021/01/07 15:57:37;;;;;;;159.43;57.97;;;;;;;;;;8158657;28;20361;-73
2021/01/07 16:01:48;;;;;;;122.93;47.03;;;;;;;;;;7993702;28;20472;-73
2021/01/07 16:05:55;;;;;;;77.35;35.05;;;;;;;;;;8193801;28;20054;-73
2021/01/07 16:09:59;;;;;;;115.72;43.47;;;;;;;;;;8193631;28;20362;-72
2021/01/07 16:14:02;;;;;;;145.38;63.30;;;;;;;;;;8176264;28;20058;-73
2021/01/07 16:18:06;;;;;;;151.55;59.55;;;;;;;;;;8193575;28;20049;-73
2021/01/07 16:22:22;;;;;;;82.57;39.40;;;;;;;;;;8117758;28;20065;-73
2021/01/07 16:26:30;;;;;;;68.43;29.93;;;;;;;;;;8193137;28;20507;-73
2021/01/07 16:30:33;;;;;;;57.05;26.08;;;;;;;;;;8176039;28;20481;-73
2021/01/07 16:34:36;;;;;;;58.42;26.38;;;;;;;;;;8192456;28;20465;-73
2021/01/07 16:38:42;;;;;;;58.08;26.17;;;;;;;;;;8180804;28;20404;-73
2021/01/07 16:42:45;;;;;;;55.17;23.73;;;;;;;;;;8151041;28;20366;-73
2021/01/07 16:46:49;;;;;;;162.45;83.82;;;;;;;;;;8160326;28;20499;-74
2021/01/07 16:50:52;;;;;;;113.65;46.75;;;;;;;;;;8143015;28;20397;-74
2021/01/07 16:54:55;;;;;;;59.90;28.85;;;;;;;;;;8160292;28;20381;-73
2021/01/07 16:58:58;;;;;;;67.10;28.20;;;;;;;;;;8099480;28;20076;-73
2021/01/07 17:03:02;;;;;;;256.45;86.57;;;;;;;;;;8174716;28;20376;-74
2021/01/07 17:07:20;;;;;;;139.05;55.45;;;;;;;;;;8222156;28;20053;-74
2021/01/07 17:11:23;;;;;;;979.15;411.30;;;;;;;;;;8198784;28;20080;-74
2021/01/07 17:15:26;;;;;;;203.35;86.03;;;;;;;;;;8168482;28;20054;-74
2021/01/07 17:19:30;;;;;;;801.17;375.10;;;;;;;;;;8159091;28;20069;-74
2021/01/07 17:23:34;;;;;;;470.30;119.30;;;;;;;;;;8155684;28;20495;-74
2021/01/07 17:27:37;;;;;;;294.92;75.07;;;;;;;;;;8157043;28;20458;-77
2021/01/07 17:31:41;;;;;;;171.77;56.03;;;;;;;;;;8158118;28;20484;-74
2021/01/07 17:35:45;;;;;;;241.32;68.07;;;;;;;;;;8161128;28;20134;-74
2021/01/07 17:39:49;;;;;;;243.00;79.93;;;;;;;;;;8162088;28;20477;-74
2021/01/07 17:43:52;;;;;;;351.00;141.75;;;;;;;;;;8186417;28;20050;-74
2021/01/07 17:47:54;;;;;;;388.67;164.65;;;;;;;;;;8169744;28;20072;-77
2021/01/07 17:51:57;;;;;;;351.60;107.25;;;;;;;;;;8188948;28;20487;-75
2021/01/07 17:56:00;;;;;;;112.75;42.55;;;;;;;;;;8190137;28;20416;-75
2021/01/07 18:00:06;;;;;;;124.47;47.97;;;;;;;;;;8170012;28;20358;-75
2021/01/07 18:04:09;;;;;;;142.43;58.53;;;;;;;;;;8145675;28;20362;-75
2021/01/07 18:08:13;;;;;;;187.13;49.30;;;;;;;;;;8195914;28;20510;-75
2021/01/07 18:12:19;;;;;;;339.75;96.43;;;;;;;;;;8191276;28;20054;-75
2021/01/07 18:16:24;;;;;;;646.08;207.85;;;;;;;;;;8193466;28;20053;-75
2021/01/07 18:21:45;;;;;;;96.35;41.92;;;;;;;;;;8252092;28;20664;-76
2021/01/07 18:25:50;;;;;;;119.82;40.45;;;;;;;;;;8262212;28;20479;-74
2021/01/07 18:29:53;;;;;;;89.18;27.88;;;;;;;;;;8246786;28;20464;-75
2021/01/07 18:33:59;;;;;;;61.85;27.17;;;;;;;;;;8246618;28;20388;-76
2021/01/07 18:38:02;;;;;;;53.83;26.75;;;;;;;;;;8246551;28;20386;-75
2021/01/07 18:42:06;;;;;;;107.95;32.38;;;;;;;;;;8245886;28;20364;-76
2021/01/07 18:46:11;;;;;;;165.00;37.05;;;;;;;;;;8249018;28;20395;-75
2021/01/07 18:50:17;;;;;;;75.17;33.63;;;;;;;;;;8244870;28;20502;-75
2021/01/07 18:54:21;;;;;;;384.77;77.13;;;;;;;;;;8248173;28;20383;-74
2021/01/07 18:58:24;;;;;;;99.22;42.53;;;;;;;;;;8245959;28;20053;-75
2021/01/07 19:02:27;;;;;;;278.02;63.15;;;;;;;;;;8244056;28;20455;-79
2021/01/07 19:06:31;;;;;;;484.10;104.68;;;;;;;;;;8246777;28;20482;-75
2021/01/07 19:10:34;;;;;;;375.15;92.55;;;;;;;;;;8247307;28;20498;-75
2021/01/07 19:14:37;;;;;;;180.38;69.70;;;;;;;;;;8246049;28;20037;-75
2021/01/07 19:18:40;;;;;;;364.15;89.38;;;;;;;;;;8244616;28;20455;-76
2021/01/07 19:22:43;;;;;;;273.83;79.80;;;;;;;;;;8245253;28;20369;-74
2021/01/07 19:26:56;;;;;;;370.15;93.10;;;;;;;;;;8244305;28;20675;-76
2021/01/07 19:30:58;;;;;;;541.13;119.63;;;;;;;;;;8236116;28;20053;-75
2021/01/07 19:35:02;;;;;;;98.40;42.08;;;;;;;;;;8220834;28;20049;-75
2021/01/07 19:39:07;;;;;;;72.22;32.33;;;;;;;;;;8223524;28;20377;-75
2021/01/07 19:43:10;;;;;;;80.68;34.08;;;;;;;;;;8223294;28;20388;-75
2021/01/07 19:47:16;;;;;;;183.10;44.33;;;;;;;;;;8224462;28;20068;-75
2021/01/07 19:51:22;;;;;;;187.52;52.40;;;;;;;;;;8226013;28;20468;-75
2021/01/07 19:55:25;;;;;;;103.43;43.92;;;;;;;;;;8225471;28;20387;-75
2021/01/07 19:59:28;;;;;;;609.08;227.25;;;;;;;;;;8226651;28;20399;-75
2021/01/07 20:03:32;;;;;;;492.92;187.43;;;;;;;;;;8225890;28;20469;-76
2021/01/07 20:07:36;;;;;;;151.23;54.03;;;;;;;;;;8222436;28;20379;-75
2021/01/07 20:11:39;;;;;;;328.83;77.82;;;;;;;;;;8226195;28;20733;-75
2021/01/07 20:15:43;;;;;;;357.17;78.72;;;;;;;;;;8221896;28;20068;-76
2021/01/07 20:19:46;;;;;;;459.50;101.63;;;;;;;;;;8222802;28;20467;-75
2021/01/07 20:23:50;;;;;;;393.83;86.75;;;;;;;;;;8224675;28;20475;-75
2021/01/07 20:27:54;;;;;;;259.55;71.22;;;;;;;;;;8219681;28;20480;-75
2021/01/07 20:31:57;;;;;;;524.92;123.75;;;;;;;;;;8225571;28;20341;-76
2021/01/07 20:36:00;;;;;;;241.80;75.45;;;;;;;;;;8220620;28;20402;-75
2021/01/07 20:40:05;;;;;;;272.52;66.03;;;;;;;;;;8223339;28;20502;-75
2021/01/07 20:44:08;;;;;;;387.00;80.60;;;;;;;;;;8173336;28;20503;-75
2021/01/07 20:48:14;;;;;;;443.52;92.13;;;;;;;;;;8192953;28;20404;-75
2021/01/07 20:52:17;;;;;;;410.48;87.38;;;;;;;;;;8204512;28;20368;-76
2021/01/07 20:56:20;;;;;;;134.45;43.88;;;;;;;;;;8193648;28;20368;-75
2021/01/07 21:00:23;;;;;;;367.98;80.70;;;;;;;;;;8190129;28;20046;-75
2021/01/07 21:04:30;;;;;;;284.95;72.82;;;;;;;;;;8216701;28;20045;-76
2021/01/07 21:08:34;;;;;;;164.13;46.30;;;;;;;;;;8221555;28;20383;-75
2021/01/07 21:12:38;;;;;;;254.77;63.00;;;;;;;;;;8224590;28;20367;-75
2021/01/07 21:16:41;;;;;;;308.50;79.80;;;;;;;;;;8222981;28;20488;-75
2021/01/07 21:20:45;;;;;;;357.05;77.80;;;;;;;;;;8223791;28;20365;-75
2021/01/07 21:24:49;;;;;;;375.25;81.88;;;;;;;;;;8223219;28;20476;-76
2021/01/07 21:28:53;;;;;;;320.38;68.68;;;;;;;;;;8223151;28;20452;-75
2021/01/07 21:32:56;;;;;;;264.38;64.47;;;;;;;;;;8222971;28;20379;-75
2021/01/07 21:37:08;;;;;;;179.82;47.10;;;;;;;;;;8222370;28;20076;-75
2021/01/07 21:41:11;;;;;;;194.95;49.65;;;;;;;;;;8238362;28;20357;-76
2021/01/07 21:45:16;;;;;;;309.08;72.80;;;;;;;;;;8222575;28;20478;-75
2021/01/07 21:49:20;;;;;;;168.55;49.97;;;;;;;;;;8223583;28;20061;-73
2021/01/07 21:53:23;;;;;;;191.75;53.10;;;;;;;;;;8236160;28;21084;-73
2021/01/07 21:57:27;;;;;;;325.48;72.85;;;;;;;;;;8223388;28;20491;-73
2021/01/07 22:01:30;;;;;;;185.10;54.80;;;;;;;;;;8221341;28;20468;-73
2021/01/07 22:05:33;;;;;;;207.55;54.78;;;;;;;;;;8223197;28;20494;-76
2021/01/07 22:09:37;;;;;;;269.52;65.18;;;;;;;;;;8222609;28;20482;-74
2021/01/07 22:13:40;;;;;;;138.80;41.60;;;;;;;;;;8222821;28;20353;-74
2021/01/07 22:17:43;;;;;;;242.80;59.88;;;;;;;;;;8236244;28;20471;-73
2021/01/07 22:21:49;;;;;;;153.68;42.97;;;;;;;;;;8221777;28;20352;-74
2021/01/07 22:25:52;;;;;;;116.85;37.08;;;;;;;;;;8223210;28;20050;-73
2021/01/07 22:29:56;;;;;;;146.45;43.58;;;;;;;;;;8222171;28;20049;-73
2021/01/07 22:34:00;;;;;;;215.20;56.75;;;;;;;;;;8222679;28;20068;-74
2021/01/07 22:38:05;;;;;;;143.23;43.40;;;;;;;;;;8222300;28;20379;-73
2021/01/07 22:42:08;;;;;;;137.18;40.53;;;;;;;;;;8221273;28;20483;-74
2021/01/07 22:46:16;;;;;;;99.35;30.92;;;;;;;;;;8237371;28;20075;-74
2021/01/07 22:50:19;;;;;;;176.00;43.78;;;;;;;;;;8220609;28;20471;-73
2021/01/07 22:54:22;;;;;;;164.82;43.28;;;;;;;;;;8238094;28;20360;-74
2021/01/07 22:58:25;;;;;;;138.57;36.70;;;;;;;;;;8221491;28;20364;-74
2021/01/07 23:02:29;;;;;;;148.32;40.55;;;;;;;;;;8221755;28;20053;-74
2021/01/07 23:06:35;;;;;;;143.48;37.30;;;;;;;;;;8225693;28;20375;-74
2021/01/07 23:10:38;;;;;;;140.07;38.97;;;;;;;;;;8225892;28;20375;-74
2021/01/07 23:14:41;;;;;;;76.28;24.77;;;;;;;;;;8225185;28;20057;-74
2021/01/07 23:18:47;;;;;;;119.10;38.08;;;;;;;;;;8227420;28;20499;-75
2021/01/07 23:22:52;;;;;;;190.80;50.33;;;;;;;;;;8227296;28;20053;-74
2021/01/07 23:26:55;;;;;;;121.78;33.42;;;;;;;;;;8226971;28;20435;-74
2021/01/07 23:30:59;;;;;;;93.72;29.60;;;;;;;;;;8226767;28;20463;-74
2021/01/07 23:35:05;;;;;;;94.50;31.10;;;;;;;;;;8228905;28;20375;-74
2021/01/07 23:39:10;;;;;;;86.43;29.63;;;;;;;;;;8228873;28;20349;-74
2021/01/07 23:43:13;;;;;;;167.77;50.10;;;;;;;;;;8228687;28;20357;-75
2021/01/07 23:47:16;;;;;;;110.93;36.30;;;;;;;;;;8228662;28;20428;-74
2021/01/07 23:51:28;;;;;;;95.55;32.60;;;;;;;;;;8242564;28;20493;-74